Time;durP1;ratioP1;P1;durP2;ratioP2;P2;SDS_P1;SDS_P2;PMS_P1;PMS_P2;Temp;Humidity;BMP_temperature;BMP_pressure;BME280_temperature;BME280_humidity;BME280_pressure;Samples;Min_cycle;Max_cycle;Signal;HPM_P1;HPM_P2
2022/07/09 00:02:00;;;;;;;5.40;1.67;;;14.00;99.90;;;;;;8315107;28;20195;-61
2022/07/09 00:06:02;;;;;;;5.60;2.10;;;14.10;99.90;;;;;;8309546;28;20217;-62
2022/07/09 00:10:03;;;;;;;3.83;1.80;;;14.10;99.90;;;;;;8310750;28;20244;-63
2022/07/09 00:14:04;;;;;;;6.00;1.93;;;14.10;99.90;;;;;;8306641;28;20197;-63
2022/07/09 00:18:05;;;;;;;5.23;1.67;;;14.00;99.90;;;;;;8311519;28;20193;-62
2022/07/09 00:22:06;;;;;;;3.30;2.00;;;13.90;99.90;;;;;;8312370;28;20568;-72
2022/07/09 00:26:07;;;;;;;5.27;2.00;;;13.70;1.00;;;;;;8338882;28;20538;-61
2022/07/09 00:30:08;;;;;;;4.00;2.20;;;13.60;1.00;;;;;;8304363;28;20313;-64
2022/07/09 00:34:09;;;;;;;4.97;2.30;;;13.50;80.30;;;;;;8322138;28;20200;-62
2022/07/09 00:38:10;;;;;;;5.53;2.63;;;13.50;99.90;;;;;;8304096;28;20218;-63
2022/07/09 00:42:11;;;;;;;5.93;2.50;;;13.60;1.00;;;;;;8307638;28;20190;-63
2022/07/09 00:46:12;;;;;;;4.33;2.50;;;13.80;99.90;;;;;;8305958;28;20194;-62
2022/07/09 00:50:13;;;;;;;4.40;2.20;;;14.00;18.20;;;;;;8306557;28;20234;-62
2022/07/09 00:54:14;;;;;;;4.53;2.50;;;14.10;99.90;;;;;;8333879;28;20187;-62
2022/07/09 00:58:17;;;;;;;4.83;2.27;;;14.20;99.90;;;;;;8303688;28;20191;-62
2022/07/09 01:02:19;;;;;;;4.50;2.30;;;14.20;99.90;;;;;;8304169;28;20201;-63
2022/07/09 01:06:20;;;;;;;6.37;2.13;;;14.10;99.90;;;;;;8304328;28;20221;-62
2022/07/09 01:10:21;;;;;;;4.00;2.50;;;13.90;99.90;;;;;;8333678;28;20213;-62
2022/07/09 01:14:22;;;;;;;4.27;2.30;;;13.80;1.00;;;;;;8299814;28;20274;-62
2022/07/09 01:18:23;;;;;;;3.63;2.23;;;13.70;36.00;;;;;;8304185;28;20245;-62
2022/07/09 01:22:24;;;;;;;4.83;2.20;;;13.60;1.00;;;;;;8340163;28;20281;-61
2022/07/09 01:26:25;;;;;;;3.77;2.00;;;13.50;99.90;;;;;;8306686;28;20197;-63
2022/07/09 01:30:27;;;;;;;3.30;2.40;;;13.30;63.00;;;;;;8311370;28;20218;-63
2022/07/09 01:34:28;;;;;;;3.63;2.47;;;13.30;99.90;;;;;;8317648;28;20198;-62
2022/07/09 01:38:29;;;;;;;4.60;2.60;;;13.20;94.80;;;;;;8312065;28;20410;-62
2022/07/09 01:42:30;;;;;;;3.67;2.77;;;13.10;12.70;;;;;;8315890;28;20194;-65
2022/07/09 01:46:30;;;;;;;4.27;2.53;;;12.90;99.90;;;;;;8307908;28;20202;-63
2022/07/09 01:50:31;;;;;;;5.17;2.77;;;12.90;1.00;;;;;;8318342;28;20254;-62
2022/07/09 01:54:32;;;;;;;2.93;2.60;;;12.80;25.40;;;;;;8312480;28;20195;-62
2022/07/09 01:58:34;;;;;;;4.17;2.60;;;12.80;99.90;;;;;;8309840;28;20252;-62
2022/07/09 02:02:34;;;;;;;5.07;3.17;;;12.80;99.90;;;;;;8312146;28;20306;-63
2022/07/09 02:06:35;;;;;;;4.37;2.87;;;12.80;99.90;;;;;;8313285;28;20216;-63
2022/07/09 02:10:36;;;;;;;3.80;2.87;;;12.90;99.90;;;;;;8315311;28;20211;-63
2022/07/09 02:14:37;;;;;;;6.33;3.30;;;12.90;99.90;;;;;;8309670;28;20271;-64
2022/07/09 02:18:38;;;;;;;5.53;3.07;;;12.90;99.90;;;;;;8308171;28;20186;-63
2022/07/09 02:22:39;;;;;;;4.47;2.70;;;12.90;99.90;;;;;;8310881;28;20273;-62
2022/07/09 02:26:40;;;;;;;3.90;3.00;;;12.90;99.90;;;;;;8305480;28;20194;-65
2022/07/09 02:30:41;;;;;;;3.30;2.67;;;12.80;99.90;;;;;;8309904;28;20225;-63
2022/07/09 02:34:41;;;;;;;5.43;2.63;;;12.70;99.90;;;;;;8304653;28;20197;-64
2022/07/09 02:38:42;;;;;;;4.07;2.80;;;12.60;99.90;;;;;;8310671;28;20204;-62
2022/07/09 02:42:43;;;;;;;6.10;3.50;;;12.50;99.90;;;;;;8310471;28;20192;-63
2022/07/09 02:46:44;;;;;;;5.70;3.33;;;12.60;99.90;;;;;;8302257;28;20189;-63
2022/07/09 02:50:45;;;;;;;4.17;2.93;;;12.60;99.90;;;;;;8309298;28;20218;-63
2022/07/09 02:54:45;;;;;;;4.97;3.30;;;12.50;99.90;;;;;;8310728;28;20193;-63
2022/07/09 02:58:46;;;;;;;6.70;3.23;;;12.40;99.90;;;;;;8310657;28;20297;-65
2022/07/09 03:02:47;;;;;;;5.73;3.40;;;12.40;99.90;;;;;;8317112;28;20225;-66
2022/07/09 03:06:48;;;;;;;5.70;2.97;;;12.30;99.90;;;;;;8305885;28;20213;-63
2022/07/09 03:10:49;;;;;;;5.13;3.47;;;12.30;99.90;;;;;;8305943;28;20208;-63
2022/07/09 03:14:50;;;;;;;4.00;2.93;;;12.30;99.90;;;;;;8304605;28;20191;-62
2022/07/09 03:18:51;;;;;;;5.27;3.97;;;12.30;99.90;;;;;;8312069;28;20233;-64
2022/07/09 03:22:51;;;;;;;7.00;4.03;;;12.40;99.90;;;;;;8309720;28;20198;-63
2022/07/09 03:26:52;;;;;;;7.20;4.07;;;12.60;99.90;;;;;;8310226;28;20237;-63
2022/07/09 03:30:53;;;;;;;4.47;3.70;;;12.70;99.90;;;;;;8312404;28;20222;-64
2022/07/09 03:34:54;;;;;;;9.50;3.73;;;12.90;99.90;;;;;;8310985;28;20202;-62
2022/07/09 03:38:54;;;;;;;4.70;3.40;;;13.00;99.90;;;;;;8308163;28;20203;-66
2022/07/09 03:42:55;;;;;;;5.67;3.30;;;13.20;99.90;;;;;;8310982;28;20189;-63
2022/07/09 03:46:56;;;;;;;4.60;3.47;;;13.20;99.90;;;;;;8304504;28;20182;-69
2022/07/09 03:50:57;;;;;;;4.60;3.43;;;13.40;99.90;;;;;;8320081;28;20714;-64
2022/07/09 03:54:57;;;;;;;6.20;2.97;;;13.50;99.30;;;;;;8308771;28;20302;-63
2022/07/09 03:58:58;;;;;;;4.37;2.60;;;13.60;1.00;;;;;;8310715;28;20245;-64
2022/07/09 04:02:59;;;;;;;4.57;3.17;;;13.60;1.00;;;;;;8305809;28;20182;-63
2022/07/09 04:07:00;;;;;;;4.47;3.60;;;13.60;1.00;;;;;;8312175;28;20271;-64
2022/07/09 04:11:01;;;;;;;6.47;3.97;;;13.70;99.90;;;;;;8308910;28;20210;-63
2022/07/09 04:15:02;;;;;;;7.73;3.70;;;13.80;99.90;;;;;;8304141;28;20216;-63
2022/07/09 04:19:03;;;;;;;4.67;3.47;;;13.90;99.90;;;;;;8309583;28;20193;-63
2022/07/09 04:23:04;;;;;;;5.77;3.47;;;14.20;99.90;;;;;;8304002;28;20187;-63
2022/07/09 04:27:05;;;;;;;8.57;3.87;;;14.20;1.00;;;;;;8302277;28;20211;-66
2022/07/09 04:31:06;;;;;;;4.47;3.50;;;14.40;1.00;;;;;;8307699;28;20221;-65
2022/07/09 04:35:07;;;;;;;3.87;3.23;;;14.50;99.90;;;;;;8305746;28;20190;-63
2022/07/09 04:39:09;;;;;;;4.77;3.63;;;14.70;99.90;;;;;;8303528;28;20182;-71
2022/07/09 04:43:10;;;;;;;5.10;2.73;;;15.30;1.00;;;;;;8308010;28;20191;-65
2022/07/09 04:47:11;;;;;;;4.37;2.67;;;15.70;1.00;;;;;;8307569;28;20245;-68
2022/07/09 04:51:12;;;;;;;5.73;2.40;;;16.20;99.90;;;;;;8310877;28;20570;-63
2022/07/09 04:55:15;;;;;;;4.40;2.17;;;16.90;91.90;;;;;;8305940;28;20187;-64
2022/07/09 04:59:16;;;;;;;2.50;2.10;;;17.00;1.00;;;;;;8341188;28;20250;-65
2022/07/09 05:03:17;;;;;;;4.93;2.33;;;17.20;1.00;;;;;;8308168;28;20214;-64
2022/07/09 05:07:17;;;;;;;3.80;2.50;;;17.40;1.00;;;;;;8313790;28;20203;-69
2022/07/09 05:11:18;;;;;;;2.87;2.50;;;17.60;1.00;;;;;;8309273;28;20219;-64
2022/07/09 05:15:19;;;;;;;4.77;2.50;;;18.00;99.90;;;;;;8310139;28;20186;-64
2022/07/09 05:19:20;;;;;;;6.67;2.43;;;17.50;1.00;;;;;;8311937;28;20461;-63
2022/07/09 05:23:21;;;;;;;4.40;2.47;;;17.00;1.00;;;;;;8316513;28;20222;-64
2022/07/09 05:27:21;;;;;;;4.93;2.53;;;16.60;1.00;;;;;;8310970;28;20189;-64
2022/07/09 05:31:22;;;;;;;3.07;2.17;;;16.40;18.60;;;;;;8309598;28;20590;-64
2022/07/09 05:35:23;;;;;;;4.83;2.97;;;16.50;1.00;;;;;;8309553;28;20191;-63
2022/07/09 05:39:24;;;;;;;7.97;2.93;;;16.20;3.60;;;;;;8324319;28;20513;-66
2022/07/09 05:43:25;;;;;;;4.67;3.30;;;16.20;1.00;;;;;;8309714;28;20284;-63
2022/07/09 05:47:26;;;;;;;3.43;2.40;;;16.10;94.00;;;;;;8311890;28;20182;-63
2022/07/09 05:51:26;;;;;;;4.13;2.83;;;16.30;3.00;;;;;;8311331;28;20210;-70
2022/07/09 05:55:27;;;;;;;4.60;2.30;;;16.60;1.00;;;;;;8309764;28;20225;-62
2022/07/09 05:59:28;;;;;;;4.27;2.37;;;16.80;1.00;;;;;;8313578;28;20187;-63
2022/07/09 06:03:29;;;;;;;4.57;2.27;;;16.70;1.00;;;;;;8312169;28;20214;-63
2022/07/09 06:07:30;;;;;;;6.00;2.37;;;16.60;1.00;;;;;;8311182;28;20567;-65
2022/07/09 06:11:30;;;;;;;6.07;2.10;;;16.60;1.00;;;;;;8305372;28;20241;-64
2022/07/09 06:15:31;;;;;;;5.87;2.07;;;16.30;99.90;;;;;;8309596;28;20191;-65
2022/07/09 06:19:34;;;;;;;6.30;2.03;;;16.40;1.00;;;;;;8313488;28;20188;-64
2022/07/09 06:23:34;;;;;;;4.70;1.80;;;16.60;99.90;;;;;;8305202;28;20198;-66
2022/07/09 06:27:36;;;;;;;4.40;2.20;;;16.60;99.90;;;;;;8307608;28;20215;-64
2022/07/09 06:31:36;;;;;;;3.77;1.80;;;16.70;99.90;;;;;;8302434;28;20214;-63
2022/07/09 06:35:37;;;;;;;4.33;2.17;;;16.70;99.90;;;;;;8307646;28;20301;-68
2022/07/09 06:39:48;;;;;;;3.57;1.80;;;16.70;99.90;;;;;;8312074;28;20289;-64
2022/07/09 06:43:49;;;;;;;6.90;1.80;;;16.90;99.90;;;;;;8314350;28;20305;-65
2022/07/09 06:47:50;;;;;;;3.57;1.70;;;16.70;99.90;;;;;;8307384;28;20193;-64
2022/07/09 06:51:50;;;;;;;4.57;2.33;;;16.90;99.90;;;;;;8308117;28;20223;-64
2022/07/09 06:55:51;;;;;;;5.27;2.47;;;16.90;99.90;;;;;;8322913;28;20194;-63
2022/07/09 06:59:52;;;;;;;5.37;2.23;;;17.00;99.90;;;;;;8301615;28;20373;-63
2022/07/09 07:03:53;;;;;;;5.03;2.20;;;17.20;99.90;;;;;;8303525;28;20214;-66
2022/07/09 07:07:54;;;;;;;7.03;2.73;;;17.20;99.90;;;;;;8312272;28;20198;-66
2022/07/09 07:11:54;;;;;;;6.03;3.00;;;16.90;99.90;;;;;;8309417;28;20214;-65
2022/07/09 07:15:55;;;;;;;5.30;2.50;;;16.70;99.90;;;;;;8310372;28;20182;-66
2022/07/09 07:19:56;;;;;;;5.60;2.50;;;16.90;99.90;;;;;;8311573;28;20351;-69
2022/07/09 07:23:57;;;;;;;6.33;2.87;;;16.90;99.90;;;;;;8317519;28;20282;-67
2022/07/09 07:27:58;;;;;;;5.97;3.60;;;17.00;99.90;;;;;;8308140;28;20186;-67
2022/07/09 07:31:59;;;;;;;4.50;2.83;;;17.00;99.90;;;;;;8312446;28;20537;-65
2022/07/09 07:36:00;;;;;;;5.50;3.80;;;17.00;99.90;;;;;;8314941;28;20186;-66
2022/07/09 07:40:01;;;;;;;5.03;3.67;;;16.80;99.90;;;;;;8310879;28;20194;-68
2022/07/09 07:44:01;;;;;;;6.40;3.63;;;16.90;99.90;;;;;;8307557;28;20202;-68
2022/07/09 07:48:03;;;;;;;4.07;2.87;;;17.20;99.90;;;;;;8315306;28;20213;-68
2022/07/09 07:52:05;;;;;;;4.37;2.97;;;17.40;99.90;;;;;;8312459;28;20335;-65
2022/07/09 07:56:07;;;;;;;3.60;2.23;;;17.80;95.10;;;;;;8309994;28;20258;-68
2022/07/09 08:00:09;;;;;;;6.10;2.13;;;17.70;85.80;;;;;;8311814;28;20218;-68
2022/07/09 08:04:10;;;;;;;5.97;2.20;;;17.70;97.90;;;;;;8301128;28;20186;-66
2022/07/09 08:08:11;;;;;;;2.60;1.90;;;18.10;64.80;;;;;;8311089;28;20199;-67
2022/07/09 08:12:11;;;;;;;7.93;2.40;;;17.90;68.30;;;;;;8311147;28;20249;-67
2022/07/09 08:16:12;;;;;;;4.10;1.83;;;18.00;88.50;;;;;;8308190;28;20274;-68
2022/07/09 08:20:13;;;;;;;4.10;1.50;;;18.30;57.30;;;;;;8305658;28;20194;-66
2022/07/09 08:24:14;;;;;;;3.60;1.70;;;18.40;21.40;;;;;;8305863;28;20179;-65
2022/07/09 08:28:15;;;;;;;3.47;1.77;;;18.80;1.00;;;;;;8304780;28;20310;-67
2022/07/09 08:32:16;;;;;;;5.13;2.33;;;18.60;19.00;;;;;;8301199;28;20226;-71
2022/07/09 08:36:17;;;;;;;3.97;1.57;;;18.20;38.10;;;;;;8309507;28;20245;-68
2022/07/09 08:40:18;;;;;;;2.80;1.60;;;18.10;33.00;;;;;;8306568;28;20246;-68
2022/07/09 08:44:20;;;;;;;2.67;1.60;;;18.60;10.10;;;;;;8309756;28;20210;-68
2022/07/09 08:48:21;;;;;;;7.13;1.80;;;18.40;19.40;;;;;;8306341;28;20190;-68
2022/07/09 08:52:23;;;;;;;4.77;1.60;;;18.50;16.70;;;;;;8306560;28;20297;-67
2022/07/09 08:56:24;;;;;;;4.80;1.83;;;18.00;17.90;;;;;;8308137;28;20183;-67
2022/07/09 09:00:25;;;;;;;3.23;1.50;;;17.80;68.50;;;;;;8301516;28;20195;-67
2022/07/09 09:04:26;;;;;;;4.20;2.20;;;18.20;28.40;;;;;;8306207;28;20515;-68
2022/07/09 09:08:27;;;;;;;5.80;2.90;;;18.30;56.00;;;;;;8308959;28;20213;-71
2022/07/09 09:12:28;;;;;;;4.13;2.73;;;18.70;1.20;;;;;;8313053;28;20344;-66
2022/07/09 09:16:29;;;;;;;3.90;1.80;;;18.80;37.00;;;;;;8312384;28;20187;-70
2022/07/09 09:20:31;;;;;;;5.00;2.10;;;18.90;1.00;;;;;;8307772;28;20228;-66
2022/07/09 09:24:34;;;;;;;4.53;2.43;;;19.00;1.00;;;;;;8297007;28;20190;-67
2022/07/09 09:28:34;;;;;;;3.87;1.93;;;19.00;1.00;;;;;;8306952;28;20286;-68
2022/07/09 09:32:35;;;;;;;4.77;2.37;;;18.90;1.00;;;;;;8310425;28;20437;-69
2022/07/09 09:36:42;;;;;;;3.60;2.13;;;18.80;1.00;;;;;;8309319;28;20198;-68
2022/07/09 09:40:46;;;;;;;4.67;2.70;;;18.80;18.40;;;;;;8303409;28;20274;-67
2022/07/09 09:44:50;;;;;;;4.33;2.10;;;18.90;24.20;;;;;;8316137;28;20195;-68
2022/07/09 09:48:51;;;;;;;4.83;3.03;;;18.90;1.00;;;;;;8312152;28;20190;-68
2022/07/09 09:52:54;;;;;;;5.43;2.70;;;18.90;18.50;;;;;;8311887;28;20746;-64
2022/07/09 09:56:55;;;;;;;4.33;3.00;;;19.40;1.00;;;;;;8340379;28;20197;-66
2022/07/09 10:00:56;;;;;;;3.23;2.60;;;19.50;1.00;;;;;;8313325;28;20199;-68
2022/07/09 10:04:58;;;;;;;3.93;2.73;;;19.60;5.40;;;;;;8310639;28;20280;-65
2022/07/09 10:09:02;;;;;;;4.33;2.40;;;19.40;1.00;;;;;;8317701;28;20256;-64
2022/07/09 10:13:03;;;;;;;4.47;2.20;;;19.50;1.00;;;;;;8314556;28;20214;-65
2022/07/09 10:17:15;;;;;;;3.40;2.43;;;19.80;1.00;;;;;;8313717;28;20313;-66
2022/07/09 10:21:15;;;;;;;4.33;2.73;;;20.10;1.00;;;;;;8310259;28;20276;-66
2022/07/09 10:25:27;;;;;;;4.63;2.90;;;19.70;1.00;;;;;;8307605;28;20202;-65
2022/07/09 10:29:29;;;;;;;3.87;2.60;;;19.90;1.00;;;;;;8312730;28;20198;-66
2022/07/09 10:33:36;;;;;;;3.70;2.30;;;19.50;1.00;;;;;;8310555;28;20282;-68
2022/07/09 10:37:45;;;;;;;3.80;2.67;;;20.30;1.00;;;;;;8316957;28;20528;-65
2022/07/09 10:41:45;;;;;;;4.73;2.03;;;21.00;1.00;;;;;;8327410;28;20286;-68
2022/07/09 10:45:46;;;;;;;3.90;2.60;;;21.20;1.00;;;;;;8316101;28;20476;-68
2022/07/09 10:49:47;;;;;;;5.53;2.53;;;21.20;1.00;;;;;;8316763;28;20238;-67
2022/07/09 10:53:48;;;;;;;3.73;2.93;;;21.30;1.00;;;;;;8315231;28;20194;-68
2022/07/09 10:57:49;;;;;;;5.50;3.30;;;21.30;1.00;;;;;;8317537;28;20238;-67
2022/07/09 11:01:51;;;;;;;9.17;4.63;;;21.20;1.00;;;;;;8318109;28;20230;-66
2022/07/09 11:05:52;;;;;;;5.73;4.60;;;20.70;1.00;;;;;;8314790;28;20293;-67
2022/07/09 11:09:53;;;;;;;7.27;5.20;;;19.80;1.00;;;;;;8318549;28;20267;-68
2022/07/09 11:13:56;;;;;;;6.77;5.03;;;19.50;1.00;;;;;;8318847;28;20206;-70
2022/07/09 11:17:58;;;;;;;5.57;5.00;;;19.50;1.00;;;;;;8316051;28;20213;-67
2022/07/09 11:22:03;;;;;;;6.43;5.27;;;19.70;1.00;;;;;;8320790;28;20183;-68
2022/07/09 11:26:04;;;;;;;7.83;5.13;;;19.30;1.00;;;;;;8317714;28;20190;-68
2022/07/09 11:30:05;;;;;;;6.70;4.37;;;18.90;1.00;;;;;;8312541;28;20210;-68
2022/07/09 11:34:12;;;;;;;7.33;4.53;;;19.10;1.00;;;;;;8348540;28;20205;-67
2022/07/09 11:38:13;;;;;;;5.10;4.17;;;19.60;1.00;;;;;;8316679;28;20187;-67
2022/07/09 11:42:17;;;;;;;6.17;3.83;;;19.70;1.00;;;;;;8319626;28;20186;-68
2022/07/09 11:46:19;;;;;;;8.67;4.20;;;19.90;1.00;;;;;;8342590;28;20199;-67
2022/07/09 11:50:19;;;;;;;6.30;3.17;;;19.80;1.00;;;;;;8311828;28;20215;-66
2022/07/09 11:54:27;;;;;;;4.73;2.73;;;19.10;1.00;;;;;;8302577;28;20187;-67
2022/07/09 11:58:28;;;;;;;3.47;3.03;;;18.80;1.00;;;;;;8315160;28;20217;-69
2022/07/09 12:02:34;;;;;;;3.83;2.80;;;18.60;1.00;;;;;;8311182;28;20187;-68
2022/07/09 12:06:34;;;;;;;4.27;3.17;;;18.90;1.00;;;;;;8331309;28;20207;-66
2022/07/09 12:10:37;;;;;;;3.10;2.60;;;19.10;1.00;;;;;;8308578;28;20214;-68
2022/07/09 12:14:38;;;;;;;2.70;2.50;;;19.00;1.00;;;;;;8303588;28;20233;-67
2022/07/09 12:18:39;;;;;;;5.93;2.70;;;18.80;1.00;;;;;;8305247;28;20191;-66
2022/07/09 12:22:40;;;;;;;4.63;2.87;;;18.90;1.00;;;;;;8309762;28;20257;-67
2022/07/09 12:26:41;;;;;;;4.00;2.53;;;19.10;1.00;;;;;;8306920;28;20229;-67
2022/07/09 12:30:45;;;;;;;4.33;3.00;;;18.90;1.00;;;;;;8302764;28;20223;-70
2022/07/09 12:34:46;;;;;;;3.93;3.10;;;18.80;1.00;;;;;;8310759;28;20194;-68
2022/07/09 12:38:46;;;;;;;3.67;3.13;;;19.10;1.00;;;;;;8309263;28;20251;-66
2022/07/09 12:42:47;;;;;;;4.03;3.43;;;19.60;1.00;;;;;;8308938;28;20198;-63
2022/07/09 12:46:48;;;;;;;2.97;2.67;;;19.90;1.00;;;;;;8301384;28;20198;-67
2022/07/09 12:50:49;;;;;;;6.10;3.00;;;20.20;1.00;;;;;;8309293;28;20221;-64
2022/07/09 12:54:50;;;;;;;4.90;3.30;;;20.60;1.00;;;;;;8308146;28;20587;-64
2022/07/09 12:58:51;;;;;;;3.47;3.10;;;20.60;1.00;;;;;;8307312;28;20240;-66
2022/07/09 13:02:52;;;;;;;4.07;3.57;;;20.20;1.00;;;;;;8300903;28;20198;-66
2022/07/09 13:06:53;;;;;;;4.77;3.83;;;19.60;1.00;;;;;;8334359;28;20277;-65
2022/07/09 13:10:54;;;;;;;3.63;3.30;;;19.40;1.00;;;;;;8310295;28;20211;-67
2022/07/09 13:14:55;;;;;;;4.10;3.40;;;19.40;1.00;;;;;;8307192;28;20182;-65
2022/07/09 13:18:55;;;;;;;3.53;3.23;;;19.40;1.00;;;;;;8308626;28;20190;-66
2022/07/09 13:22:56;;;;;;;4.60;2.40;;;19.30;1.00;;;;;;8323937;28;20201;-63
2022/07/09 13:26:57;;;;;;;4.20;2.50;;;19.10;1.00;;;;;;8308103;28;20190;-64
2022/07/09 13:30:58;;;;;;;3.70;2.60;;;19.30;1.00;;;;;;8309510;28;20320;-65
2022/07/09 13:34:59;;;;;;;4.40;2.07;;;19.10;1.00;;;;;;8313514;28;20182;-66
2022/07/09 13:39:00;;;;;;;3.47;1.87;;;19.40;1.00;;;;;;8315687;28;20244;-65
2022/07/09 13:43:00;;;;;;;2.30;1.80;;;19.60;1.00;;;;;;8312504;28;20194;-65
2022/07/09 13:47:01;;;;;;;2.10;1.90;;;19.20;1.00;;;;;;8314645;28;20195;-64
2022/07/09 13:51:02;;;;;;;2.07;1.60;;;19.10;1.00;;;;;;8312365;28;20301;-65
2022/07/09 13:55:04;;;;;;;3.30;1.80;;;19.00;1.00;;;;;;8309911;28;20178;-65
2022/07/09 13:59:04;;;;;;;3.90;1.83;;;19.10;1.00;;;;;;8309539;28;20202;-64
2022/07/09 14:03:05;;;;;;;2.87;1.50;;;19.20;1.00;;;;;;8313992;28;20329;-66
2022/07/09 14:07:06;;;;;;;1.87;1.40;;;19.10;1.00;;;;;;8323961;28;20206;-63
2022/07/09 14:11:07;;;;;;;2.40;1.57;;;19.10;1.00;;;;;;8313695;28;20203;-66
2022/07/09 14:15:09;;;;;;;4.30;2.20;;;19.60;1.00;;;;;;8308322;28;20214;-65
2022/07/09 14:19:10;;;;;;;7.53;4.97;;;19.90;1.00;;;;;;8314097;28;20187;-65
2022/07/09 14:23:11;;;;;;;80.73;58.10;;;19.80;1.00;;;;;;8307020;28;20190;-64
2022/07/09 14:27:12;;;;;;;40.90;32.47;;;19.50;1.00;;;;;;8307605;28;20197;-65
2022/07/09 14:31:13;;;;;;;2.87;2.57;;;19.90;1.00;;;;;;8312069;28;20210;-67
2022/07/09 14:35:14;;;;;;;2.93;2.63;;;19.90;1.00;;;;;;8305114;28;20187;-66
2022/07/09 14:39:14;;;;;;;4.10;2.27;;;19.70;1.00;;;;;;8305077;28;20178;-66
2022/07/09 14:43:15;;;;;;;2.97;1.70;;;19.90;1.00;;;;;;8311180;28;20302;-67
2022/07/09 14:47:16;;;;;;;5.97;4.07;;;19.80;1.00;;;;;;8312773;28;20201;-67
2022/07/09 14:51:17;;;;;;;2.03;1.10;;;20.40;1.00;;;;;;8304606;28;20229;-64
2022/07/09 14:55:18;;;;;;;2.70;1.00;;;20.60;1.00;;;;;;8305281;28;20241;-67
2022/07/09 14:59:21;;;;;;;1.50;1.10;;;20.10;1.00;;;;;;8305879;28;20293;-64
2022/07/09 15:03:21;;;;;;;2.70;1.57;;;19.70;1.00;;;;;;8305837;28;20199;-66
2022/07/09 15:07:23;;;;;;;1.67;1.30;;;19.80;1.00;;;;;;8306912;28;20233;-66
2022/07/09 15:11:23;;;;;;;3.87;1.30;;;19.90;1.00;;;;;;8305822;28;20214;-65
2022/07/09 15:15:24;;;;;;;4.00;2.47;;;20.30;1.00;;;;;;8306170;28;20194;-67
2022/07/09 15:19:25;;;;;;;2.23;1.20;;;20.80;1.00;;;;;;8303920;28;20272;-67
2022/07/09 15:23:26;;;;;;;2.47;1.43;;;21.20;1.00;;;;;;8304485;28;20277;-66
2022/07/09 15:27:26;;;;;;;2.20;1.27;;;21.30;1.00;;;;;;8308132;28;20221;-66
2022/07/09 15:31:27;;;;;;;1.90;1.10;;;21.20;1.00;;;;;;8301979;28;20245;-65
2022/07/09 15:35:28;;;;;;;0.93;0.70;;;21.20;1.00;;;;;;8306352;28;20194;-65
2022/07/09 15:39:29;;;;;;;1.30;1.07;;;20.70;1.00;;;;;;8315979;28;20190;-64
2022/07/09 15:43:30;;;;;;;2.20;1.20;;;20.30;1.00;;;;;;8303175;28;20540;-66
2022/07/09 15:47:33;;;;;;;1.37;1.00;;;20.50;1.00;;;;;;8309111;28;20215;-68
2022/07/09 15:51:34;;;;;;;1.43;0.93;;;20.60;1.00;;;;;;8302579;28;20265;-64
2022/07/09 15:55:35;;;;;;;1.47;0.90;;;20.70;1.00;;;;;;8306643;28;20191;-68
2022/07/09 15:59:36;;;;;;;1.30;0.90;;;20.80;1.00;;;;;;8308677;28;20284;-65
2022/07/09 16:03:37;;;;;;;3.73;2.00;;;21.00;1.00;;;;;;8296489;28;20292;-67
2022/07/09 16:07:39;;;;;;;1.87;1.10;;;21.00;1.00;;;;;;8300734;28;20203;-65
2022/07/09 16:15:59;;;;;;;4.63;1.80;;;20.30;1.00;;;;;;8305650;28;20278;-67
2022/07/09 16:20:00;;;;;;;3.13;1.43;;;20.40;1.00;;;;;;8304205;28;20187;-66
2022/07/09 16:24:01;;;;;;;1.73;1.20;;;20.80;1.00;;;;;;8305482;28;20384;-64
2022/07/09 16:28:02;;;;;;;2.17;1.10;;;20.90;1.00;;;;;;8308756;28;20189;-66
2022/07/09 16:32:04;;;;;;;3.73;1.20;;;20.70;1.00;;;;;;8299363;28;20218;-65
2022/07/09 16:36:05;;;;;;;2.90;1.17;;;20.50;1.00;;;;;;8300729;28;20198;-64
2022/07/09 16:40:07;;;;;;;1.97;1.17;;;20.30;1.00;;;;;;8302126;28;20289;-65
2022/07/09 16:44:07;;;;;;;2.97;1.30;;;20.40;1.00;;;;;;8305266;28;20206;-67
2022/07/09 16:48:08;;;;;;;2.20;1.50;;;20.60;1.00;;;;;;8302470;28;20186;-65
2022/07/09 16:52:09;;;;;;;2.63;1.20;;;20.20;1.00;;;;;;8300580;28;20221;-66
2022/07/09 16:56:11;;;;;;;1.73;1.10;;;20.00;1.00;;;;;;8335155;28;20191;-66
2022/07/09 17:00:12;;;;;;;1.87;1.30;;;20.00;1.00;;;;;;8308264;28;20199;-64
2022/07/09 17:04:16;;;;;;;1.93;1.40;;;19.80;1.00;;;;;;8307642;28;20793;-65
2022/07/09 17:08:17;;;;;;;2.10;1.40;;;19.60;1.00;;;;;;8307760;28;20238;-64
2022/07/09 17:12:18;;;;;;;3.30;1.80;;;19.50;1.00;;;;;;8344267;28;20210;-65
2022/07/09 17:16:18;;;;;;;2.03;1.30;;;19.40;1.00;;;;;;8311145;28;20187;-67
2022/07/09 17:20:19;;;;;;;3.13;1.30;;;19.30;1.00;;;;;;8320509;28;20281;-64
2022/07/09 17:24:20;;;;;;;2.07;1.10;;;19.30;1.00;;;;;;8306144;28;20197;-63
2022/07/09 17:28:21;;;;;;;2.80;1.27;;;19.20;1.00;;;;;;8311603;28;20216;-67
2022/07/09 17:32:22;;;;;;;5.90;2.20;;;19.00;1.00;;;;;;8324697;28;20663;-67
2022/07/09 17:36:24;;;;;;;4.50;1.73;;;17.90;1.00;;;;;;8305845;28;20262;-69
2022/07/09 17:40:26;;;;;;;2.63;1.30;;;15.90;99.90;;;;;;8301626;28;20293;-68
2022/07/09 17:49:52;;;;;;;1.47;1.20;;;14.60;99.90;;;;;;8306736;28;20199;-68
2022/07/09 17:53:53;;;;;;;2.57;1.57;;;14.40;99.90;;;;;;8311024;28;20210;-69
2022/07/09 17:57:55;;;;;;;3.20;1.70;;;14.60;99.90;;;;;;8342210;28;20274;-69
2022/07/09 18:01:56;;;;;;;2.40;1.60;;;14.80;99.90;;;;;;8297427;28;20270;-69
2022/07/09 18:05:57;;;;;;;3.50;1.30;;;15.10;99.90;;;;;;8303379;28;20249;-69
2022/07/09 18:09:58;;;;;;;4.77;1.27;;;15.10;99.90;;;;;;8307178;28;20205;-69
2022/07/09 18:13:59;;;;;;;3.37;1.23;;;15.10;99.90;;;;;;8305614;28;20183;-69
2022/07/09 18:18:00;;;;;;;2.60;2.40;;;15.10;99.90;;;;;;8306736;28;20203;-68
2022/07/09 18:22:01;;;;;;;2.43;1.50;;;15.00;99.90;;;;;;8305235;28;20187;-68
2022/07/09 18:26:01;;;;;;;1.87;1.13;;;15.00;99.90;;;;;;8301972;28;20329;-67
2022/07/09 18:30:03;;;;;;;2.33;1.47;;;15.10;99.90;;;;;;8305778;28;20213;-69
2022/07/09 18:34:04;;;;;;;1.33;1.23;;;15.20;99.90;;;;;;8307739;28;20211;-70
2022/07/09 18:38:05;;;;;;;2.40;1.60;;;15.40;99.90;;;;;;8297458;28;20189;-69
2022/07/09 18:42:06;;;;;;;1.97;1.27;;;15.30;99.90;;;;;;8305547;28;20190;-68
2022/07/09 18:46:07;;;;;;;4.07;1.40;;;15.20;99.90;;;;;;8306368;28;20607;-69
2022/07/09 18:50:08;;;;;;;3.13;1.23;;;15.60;99.90;;;;;;8305827;28;20222;-68
2022/07/09 18:54:10;;;;;;;2.30;1.50;;;15.80;99.90;;;;;;8297464;28;20182;-68
2022/07/09 18:58:11;;;;;;;2.50;1.70;;;15.60;99.90;;;;;;8304290;28;20194;-69
2022/07/09 19:02:12;;;;;;;2.53;1.60;;;15.50;99.90;;;;;;8303265;28;20190;-65
2022/07/09 19:06:13;;;;;;;2.70;1.40;;;15.30;99.90;;;;;;8306679;28;20206;-67
2022/07/09 19:10:14;;;;;;;3.80;1.87;;;15.10;99.90;;;;;;8320337;28;20201;-69
2022/07/09 19:14:15;;;;;;;2.27;1.60;;;15.00;99.90;;;;;;8312400;28;20189;-68
2022/07/09 19:18:16;;;;;;;2.67;2.27;;;14.80;99.90;;;;;;8307896;28;20190;-69
2022/07/09 19:22:17;;;;;;;1.90;1.60;;;14.70;99.90;;;;;;8330820;28;20179;-68
2022/07/09 19:26:17;;;;;;;4.17;2.00;;;14.50;99.90;;;;;;8331485;28;20203;-69
2022/07/09 19:33:58;;;;;;;2.60;1.90;;;14.40;99.90;;;;;;8322549;28;20202;-71
2022/07/09 19:34:39;;;;;;;5.30;3.10;;;14.20;99.90;;;;;;8300361;28;20190;-67
2022/07/09 19:38:40;;;;;;;2.40;1.90;;;14.10;99.90;;;;;;8314025;28;20205;-67
2022/07/09 19:42:41;;;;;;;2.23;1.80;;;14.00;99.90;;;;;;8306478;28;20198;-65
2022/07/09 19:46:42;;;;;;;2.70;1.73;;;13.90;99.90;;;;;;8308998;28;20183;-64
2022/07/09 19:50:46;;;;;;;2.10;1.90;;;13.80;99.90;;;;;;8306494;28;20222;-66
2022/07/09 19:54:47;;;;;;;3.10;2.30;;;13.70;99.90;;;;;;8309222;28;20250;-67
2022/07/09 19:58:47;;;;;;;3.37;2.47;;;13.60;99.90;;;;;;8300292;28;20183;-64
2022/07/09 20:02:48;;;;;;;3.13;2.37;;;13.50;99.90;;;;;;8302450;28;20199;-65
2022/07/09 20:06:49;;;;;;;3.40;3.03;;;13.50;99.90;;;;;;8318914;28;20258;-64
2022/07/09 20:10:50;;;;;;;3.17;2.60;;;13.40;99.90;;;;;;8300460;28;20210;-65
2022/07/09 20:14:51;;;;;;;5.17;3.10;;;13.40;99.90;;;;;;8294307;28;20242;-65
2022/07/09 20:18:53;;;;;;;3.97;2.93;;;13.40;99.90;;;;;;8293995;28;20538;-65
2022/07/09 20:22:54;;;;;;;4.53;3.17;;;13.40;99.90;;;;;;8301469;28;20201;-64
2022/07/09 20:26:55;;;;;;;4.77;2.97;;;13.50;99.90;;;;;;8303291;28;20205;-65
2022/07/09 20:30:56;;;;;;;6.67;3.37;;;13.50;99.90;;;;;;8306271;28;20213;-65
2022/07/09 20:34:57;;;;;;;4.97;3.23;;;13.50;99.90;;;;;;8304861;28;20198;-64
2022/07/09 20:38:57;;;;;;;5.37;3.40;;;13.50;99.90;;;;;;8296093;28;20265;-64
2022/07/09 20:42:58;;;;;;;4.37;2.80;;;13.50;99.90;;;;;;8316708;28;20578;-64
2022/07/09 20:46:59;;;;;;;3.63;2.70;;;13.60;99.90;;;;;;8303395;28;20499;-65
2022/07/09 20:51:00;;;;;;;3.43;2.73;;;13.60;99.90;;;;;;8307658;28;20545;-67
2022/07/09 20:55:01;;;;;;;6.13;3.30;;;13.70;99.90;;;;;;8300946;28;20178;-64
2022/07/09 20:59:03;;;;;;;5.00;3.77;;;13.70;99.90;;;;;;8307173;28;20179;-64
2022/07/09 21:03:03;;;;;;;4.30;3.20;;;13.70;99.90;;;;;;8309751;28;20232;-66
2022/07/09 21:07:04;;;;;;;4.33;3.33;;;13.70;99.90;;;;;;8304254;28;20197;-63
2022/07/09 21:11:05;;;;;;;3.93;3.30;;;13.70;99.90;;;;;;8304898;28;20449;-65